Česky Dansk Deutsch English Español Suomi Français Magyar Italiano Nederlands norsk Polski Português svenska Türkçe

 

Het Weer

Magdalena (Bolivië)

18:00, 16 augustus 2016 (GMT)

NWNNE
WE
SWSSE
Home            
Magdalena San Joaquin Santa Ana Trinidad San Ignacio De Moxos Ascencion De Guarayos Guayaramerin Riberalta San Borja Reyes San Javier Concepcion Rurrenabaque Vilhena Aeroporto San Ignacio De Velasco Viru-Viru Apolo Cochabamba Santa Cruz / El Trompillo Porto Velho Aeroporto Rio Branco Puerto Maldonado La Paz / Alto

Om een weerknop op uw website of weblog te plaatsen, copieer onderstaande code en plak die in uw pagina. In het eerste vakje staat HTML-code, in het tweede vakje UBB-code.


Add to Google

Details

Wind speed:4 bf, 12 kn, 6.2 m/s, 13.8 miles/h, 22.2 km/h
Wind direction:NW, 320°
Visibility: 7000 m, 7.0 km, 22966 ft, 4.3 miles
Clouds:Aufgelockert bewölkt at 2000 ft, 610 m
Temperature:37°C, 99°F
Gefühlte Temperatur:42°C, 107°F
Dew-point:21°C, 70°F
Atmospheric pressure:1012 hPa, 759.1 mmHg, 29.88 inHg, 0.999 atm
Relative humidity:39.6 %
METAR:SLMG 161800Z 32012KT 7000 SCT020 37/21 Q1012

Snelkoppelingen

Actuele weersinformatie van de hele wereld. Voeg locaties toe met het plus (+) symbool. Deze snelkoppelingen kunnen worden toegevoegd aan Google.

Lid van de Technetium groep

website free tracking
StatCounter NetStat W3C Validator

26-01-2020 12:01:56
astro.technetium.be money.technetium.be phote.technetium.be tafeltennistafel.technetium.be www.ligfiets.net